createdAt,value
2023-03-25T00:01:15.496Z,4.47
2023-03-25T00:03:46.482Z,3.75
2023-03-25T00:06:14.904Z,5.68
2023-03-25T00:08:43.283Z,6.05
2023-03-25T00:11:11.654Z,3.88
2023-03-25T00:13:40.630Z,7.82
2023-03-25T00:16:10.236Z,5.72
2023-03-25T00:18:38.759Z,5.85
2023-03-25T00:21:10.907Z,7.03
2023-03-25T00:23:39.799Z,3.65
2023-03-25T00:26:08.511Z,5.93
2023-03-25T00:28:38.134Z,6.28
2023-03-25T00:31:07.880Z,4.78
2023-03-25T00:33:36.484Z,4.95
2023-03-25T00:36:05.490Z,6.28
2023-03-25T00:38:37.977Z,3.17
2023-03-25T00:41:22.962Z,6.38
2023-03-25T00:43:53.236Z,6.05
2023-03-25T00:46:22.841Z,6.53
2023-03-25T00:48:52.511Z,6.55
2023-03-25T00:51:21.556Z,6.20
2023-03-25T00:53:54.066Z,7.28
2023-03-25T00:56:22.600Z,7.07
2023-03-25T00:58:51.018Z,5.85
2023-03-25T01:01:23.286Z,9.07
2023-03-25T01:03:57.681Z,5.40
2023-03-25T01:06:31.056Z,5.75
2023-03-25T01:09:01.540Z,5.53
2023-03-25T01:11:30.897Z,5.72
2023-03-25T01:14:00.221Z,7.85
2023-03-25T01:16:28.735Z,6.63
2023-03-25T01:18:57.176Z,8.30
2023-03-25T01:21:25.559Z,4.13
2023-03-25T01:23:53.896Z,7.15
2023-03-25T01:26:23.552Z,4.00
2023-03-25T01:28:51.852Z,6.45
2023-03-25T01:31:23.019Z,3.97
2023-03-25T01:33:51.542Z,5.35
2023-03-25T01:36:21.325Z,4.30
2023-03-25T01:38:50.526Z,4.75
2023-03-25T01:41:18.963Z,5.18
2023-03-25T01:46:44.810Z,9.68
2023-03-25T01:49:15.462Z,5.28
2023-03-25T01:51:45.568Z,3.72
2023-03-25T01:54:18.055Z,5.35
2023-03-25T01:56:47.710Z,7.75
2023-03-25T01:59:18.131Z,5.38
2023-03-25T02:01:47.913Z,4.88
2023-03-25T02:04:17.073Z,5.55
2023-03-25T02:06:46.500Z,5.78
2023-03-25T02:09:16.271Z,8.27
2023-03-25T02:11:44.633Z,9.23
2023-03-25T02:14:14.286Z,9.52
2023-03-25T02:16:47.573Z,5.72
2023-03-25T02:19:48.380Z,6.25
2023-03-25T02:22:43.310Z,3.75
2023-03-25T02:25:40.617Z,7.75
2023-03-25T02:28:11.766Z,4.63
2023-03-25T02:31:06.528Z,7.03
2023-03-25T02:34:08.295Z,8.23
2023-03-25T02:36:52.488Z,7.32
2023-03-25T02:39:23.351Z,8.32
2023-03-25T02:41:53.955Z,4.68
2023-03-25T02:44:26.509Z,4.80
2023-03-25T02:46:57.120Z,8.00
2023-03-25T02:49:26.963Z,6.93
2023-03-25T02:51:57.159Z,7.85
2023-03-25T02:54:27.101Z,7.55
2023-03-25T02:56:57.568Z,11.05
2023-03-25T02:59:33.066Z,8.73
2023-03-25T03:02:02.045Z,6.72
2023-03-25T03:04:30.393Z,8.07
2023-03-25T03:06:58.882Z,6.65
2023-03-25T03:09:33.301Z,5.10
2023-03-25T03:12:09.489Z,7.18
2023-03-25T03:14:49.271Z,10.40
2023-03-25T03:17:20.384Z,7.18
2023-03-25T03:19:50.793Z,8.50
2023-03-25T03:22:38.785Z,10.63
2023-03-25T03:25:12.243Z,11.68
2023-03-25T03:27:43.464Z,15.93
2023-03-25T03:30:16.089Z,10.30
2023-03-25T03:32:49.806Z,10.00
2023-03-25T03:35:19.967Z,5.53
2023-03-25T03:37:50.541Z,8.85
2023-03-25T03:40:21.554Z,7.32
2023-03-25T03:42:51.212Z,6.18
2023-03-25T03:45:21.183Z,9.57
2023-03-25T03:47:52.163Z,5.22
2023-03-25T03:50:21.769Z,8.48
2023-03-25T03:52:53.801Z,12.43
2023-03-25T03:55:24.789Z,15.75
2023-03-25T03:57:54.615Z,5.40
2023-03-25T04:00:25.730Z,10.38
2023-03-25T04:02:54.989Z,6.95
2023-03-25T04:05:23.647Z,13.93
2023-03-25T04:07:54.862Z,13.50
2023-03-25T04:10:29.630Z,8.90
2023-03-25T04:12:58.348Z,11.52
2023-03-25T04:15:28.873Z,10.70
2023-03-25T04:17:57.366Z,15.95
2023-03-25T04:20:29.659Z,11.88
2023-03-25T04:23:04.649Z,10.27
2023-03-25T04:25:34.346Z,12.50
2023-03-25T04:28:02.708Z,7.88
2023-03-25T04:30:34.136Z,11.27
2023-03-25T04:33:02.590Z,10.15
2023-03-25T04:35:32.941Z,13.60
2023-03-25T04:38:01.628Z,12.27
2023-03-25T04:40:30.060Z,8.30
2023-03-25T04:43:02.568Z,12.80
2023-03-25T04:45:36.297Z,10.23
2023-03-25T04:48:06.007Z,10.80
2023-03-25T04:50:34.363Z,13.68
2023-03-25T04:53:02.749Z,10.90
2023-03-25T04:55:31.460Z,9.20
2023-03-25T04:57:59.744Z,10.43
2023-03-25T05:00:29.456Z,11.35
2023-03-25T05:03:01.956Z,12.40
2023-03-25T05:05:30.676Z,7.50
2023-03-25T05:07:59.032Z,11.18
2023-03-25T05:10:31.825Z,7.82
2023-03-25T05:13:00.643Z,16.00
2023-03-25T05:15:32.475Z,9.25
2023-03-25T05:18:01.944Z,9.80
2023-03-25T05:20:30.824Z,10.50
2023-03-25T05:22:59.124Z,14.55
2023-03-25T05:25:36.025Z,10.90
2023-03-25T05:28:05.971Z,8.65
2023-03-25T05:30:39.101Z,11.60
2023-03-25T05:33:10.401Z,11.07
2023-03-25T05:35:38.874Z,12.57
2023-03-25T05:38:08.119Z,11.10
2023-03-25T05:40:37.777Z,10.43
2023-03-25T05:43:06.688Z,10.50
2023-03-25T05:45:37.146Z,11.65
2023-03-25T05:48:05.794Z,8.02
2023-03-25T05:50:34.160Z,11.85
2023-03-25T05:53:02.509Z,10.40
2023-03-25T05:55:33.673Z,10.40
2023-03-25T05:58:07.380Z,13.70
2023-03-25T06:00:37.453Z,13.93
2023-03-25T06:03:08.365Z,12.65
2023-03-25T06:05:37.225Z,14.15
2023-03-25T06:08:05.601Z,15.70
2023-03-25T06:10:36.760Z,14.50
2023-03-25T06:13:05.145Z,11.93
2023-03-25T06:15:39.035Z,10.60
2023-03-25T06:18:11.558Z,10.38
2023-03-25T06:20:39.923Z,15.68
2023-03-25T06:23:09.931Z,11.13
2023-03-25T06:25:38.275Z,11.23
2023-03-25T06:28:06.923Z,9.57
2023-03-25T06:30:35.281Z,14.05
2023-03-25T06:33:06.040Z,10.27
2023-03-25T06:35:35.814Z,10.75
2023-03-25T06:38:04.200Z,10.05
2023-03-25T06:40:32.596Z,7.28
2023-03-25T06:43:01.094Z,9.27
2023-03-25T06:45:29.486Z,11.30
2023-03-25T06:47:57.915Z,10.98
2023-03-25T06:50:26.357Z,10.82
2023-03-25T06:52:56.057Z,8.80
2023-03-25T06:55:24.357Z,11.95
2023-03-25T06:57:57.592Z,14.35
2023-03-25T07:00:27.014Z,8.48
2023-03-25T07:02:55.881Z,7.43
2023-03-25T07:05:27.582Z,13.43
2023-03-25T07:07:57.449Z,9.57
2023-03-25T07:10:26.045Z,8.75
2023-03-25T07:12:54.567Z,7.22
2023-03-25T07:15:23.065Z,7.32
2023-03-25T07:17:51.554Z,6.43
2023-03-25T07:20:20.361Z,9.10
2023-03-25T07:22:48.843Z,11.55
2023-03-25T07:25:18.968Z,9.43
2023-03-25T07:27:47.475Z,6.57
2023-03-25T07:30:16.169Z,12.25
2023-03-25T07:32:46.953Z,9.23
2023-03-25T07:35:15.489Z,15.77
2023-03-25T07:37:43.984Z,8.93
2023-03-25T07:40:13.284Z,15.48
2023-03-25T07:42:46.803Z,23.88
2023-03-25T07:45:15.750Z,12.93
2023-03-25T07:47:50.013Z,19.13
2023-03-25T07:50:18.938Z,18.02
2023-03-25T07:52:47.519Z,19.95
2023-03-25T07:55:17.864Z,17.98
2023-03-25T07:57:47.795Z,12.95
2023-03-25T08:00:16.489Z,12.52
2023-03-25T08:02:45.055Z,15.93
2023-03-25T08:05:21.196Z,13.05
2023-03-25T08:07:50.211Z,14.88
2023-03-25T08:10:19.173Z,19.20
2023-03-25T08:12:49.042Z,15.48
2023-03-25T08:15:25.230Z,19.92
2023-03-25T08:17:53.767Z,19.08
2023-03-25T08:20:22.502Z,12.20
2023-03-25T08:22:51.296Z,18.02
2023-03-25T08:25:19.862Z,16.58
2023-03-25T08:27:49.749Z,18.05
2023-03-25T08:30:18.306Z,15.18
2023-03-25T08:32:47.085Z,13.93
2023-03-25T08:35:17.792Z,17.20
2023-03-25T08:37:47.553Z,13.63
2023-03-25T08:40:21.021Z,17.73
2023-03-25T08:42:51.332Z,18.70
2023-03-25T08:45:20.042Z,21.60
2023-03-25T08:47:48.599Z,17.83
2023-03-25T08:50:19.471Z,13.05
2023-03-25T08:52:48.502Z,14.73
2023-03-25T08:55:17.798Z,13.05
2023-03-25T08:57:50.694Z,13.35
2023-03-25T09:00:24.147Z,16.50
2023-03-25T09:02:52.800Z,14.93
2023-03-25T09:05:21.441Z,17.17
2023-03-25T09:07:49.982Z,15.45
2023-03-25T09:10:18.591Z,12.65
2023-03-25T09:12:47.121Z,14.45
2023-03-25T09:15:18.048Z,11.25
2023-03-25T09:17:46.763Z,17.85
2023-03-25T09:20:15.375Z,15.30
2023-03-25T09:22:43.969Z,17.17
2023-03-25T09:25:13.974Z,12.32
2023-03-25T09:27:44.848Z,14.73
2023-03-25T09:30:15.854Z,13.30
2023-03-25T09:32:45.799Z,18.27
2023-03-25T09:35:19.754Z,16.70
2023-03-25T09:37:51.883Z,16.00
2023-03-25T09:40:21.663Z,24.50
2023-03-25T09:43:04.544Z,13.75
2023-03-25T09:45:35.932Z,14.18
2023-03-25T09:48:07.284Z,12.07
2023-03-25T09:50:36.147Z,12.93
2023-03-25T09:53:06.180Z,14.88
2023-03-25T09:55:36.934Z,12.63
2023-03-25T09:58:27.198Z,14.57
2023-03-25T10:00:57.895Z,15.70
2023-03-25T10:03:29.560Z,11.02
2023-03-25T10:06:18.659Z,15.77
2023-03-25T10:08:53.923Z,8.43
2023-03-25T10:11:29.288Z,11.50
2023-03-25T10:14:00.884Z,13.82
2023-03-25T10:16:32.595Z,11.40
2023-03-25T10:19:11.328Z,10.23
2023-03-25T10:21:41.355Z,10.43
2023-03-25T10:24:16.535Z,11.95
2023-03-25T10:26:46.875Z,13.82
2023-03-25T10:29:16.553Z,11.77
2023-03-25T10:31:50.654Z,11.77
2023-03-25T10:34:21.391Z,11.20
2023-03-25T10:36:55.032Z,11.52
2023-03-25T10:39:23.732Z,15.07
2023-03-25T10:41:56.940Z,9.85
2023-03-25T10:44:25.689Z,19.92
2023-03-25T10:46:57.409Z,13.65
2023-03-25T10:49:28.199Z,21.15
2023-03-25T10:51:57.621Z,13.63
2023-03-25T10:54:28.217Z,11.20
2023-03-25T10:56:57.545Z,11.07
2023-03-25T10:59:30.298Z,9.68
2023-03-25T11:01:58.761Z,10.60
2023-03-25T11:04:34.579Z,12.88
2023-03-25T11:07:05.642Z,12.68
2023-03-25T11:09:36.778Z,14.25
2023-03-25T11:12:07.182Z,7.65
2023-03-25T11:14:38.460Z,15.05
2023-03-25T11:17:09.419Z,15.20
2023-03-25T11:19:41.295Z,10.30
2023-03-25T11:22:11.315Z,8.05
2023-03-25T11:24:46.330Z,17.90
2023-03-25T11:27:22.834Z,17.92
2023-03-25T11:29:52.873Z,13.48
2023-03-25T11:32:25.243Z,9.90
2023-03-25T11:34:55.066Z,10.70
2023-03-25T11:37:24.395Z,7.57
2023-03-25T11:39:55.208Z,11.25
2023-03-25T11:42:32.567Z,13.90
2023-03-25T11:45:02.420Z,9.23
2023-03-25T11:47:32.583Z,9.10
2023-03-25T11:50:02.496Z,14.32
2023-03-25T11:52:36.124Z,10.68
2023-03-25T11:55:04.778Z,15.02
2023-03-25T11:57:36.492Z,8.30
2023-03-25T12:00:11.037Z,14.43
2023-03-25T12:02:40.189Z,8.07
2023-03-25T12:05:14.069Z,17.60
2023-03-25T12:07:43.328Z,9.98
2023-03-25T12:10:18.640Z,9.60
2023-03-25T12:12:54.307Z,12.05
2023-03-25T12:15:26.996Z,13.75
2023-03-25T12:18:04.334Z,11.80
2023-03-25T12:20:36.663Z,14.40
2023-03-25T12:23:13.912Z,13.98
2023-03-25T12:25:47.589Z,9.88
2023-03-25T12:28:57.811Z,7.35
2023-03-25T12:31:33.237Z,13.48
2023-03-25T12:34:08.143Z,13.50
2023-03-25T12:36:44.881Z,11.27
2023-03-25T12:39:29.332Z,14.82
2023-03-25T12:42:08.793Z,14.23
2023-03-25T12:44:46.108Z,9.25
2023-03-25T12:47:17.136Z,11.23
2023-03-25T12:49:57.656Z,11.73
2023-03-25T12:52:30.385Z,13.15
2023-03-25T12:55:08.132Z,12.60
2023-03-25T12:57:46.772Z,9.68
2023-03-25T13:00:26.707Z,15.18
2023-03-25T13:03:12.591Z,13.57
2023-03-25T13:05:42.759Z,9.75
2023-03-25T13:08:14.478Z,8.02
2023-03-25T13:10:42.808Z,10.63
2023-03-25T13:13:12.776Z,12.15
2023-03-25T13:15:42.525Z,8.20
2023-03-25T13:18:12.246Z,12.65
2023-03-25T13:20:42.540Z,7.65
2023-03-25T13:23:14.219Z,16.25
2023-03-25T13:25:45.705Z,8.70
2023-03-25T13:28:16.266Z,11.73
2023-03-25T13:30:45.908Z,9.57
2023-03-25T13:33:15.822Z,14.75
2023-03-25T13:35:45.751Z,10.75
2023-03-25T13:38:17.374Z,10.05
2023-03-25T13:40:50.286Z,11.65
2023-03-25T13:43:24.579Z,10.20
2023-03-25T13:45:56.249Z,14.20
2023-03-25T13:48:28.607Z,12.38
2023-03-25T13:51:08.737Z,13.15
2023-03-25T13:53:40.718Z,18.42
2023-03-25T13:56:32.868Z,9.88
2023-03-25T13:59:14.457Z,12.15
2023-03-25T14:01:57.593Z,11.65
2023-03-25T14:04:54.106Z,9.93
2023-03-25T14:07:47.888Z,10.35
2023-03-25T14:10:52.074Z,11.35
2023-03-25T14:13:22.886Z,13.25
2023-03-25T14:15:56.014Z,9.70
2023-03-25T14:18:24.375Z,8.52
2023-03-25T14:20:53.014Z,7.95
2023-03-25T14:23:23.021Z,11.73
2023-03-25T14:25:54.204Z,11.07
2023-03-25T14:28:33.458Z,8.13
2023-03-25T14:31:17.879Z,10.80
2023-03-25T14:34:14.629Z,9.05
2023-03-25T14:37:27.365Z,17.35
2023-03-25T14:39:59.330Z,9.98
2023-03-25T14:42:57.007Z,13.02
2023-03-25T14:45:44.073Z,11.05
2023-03-25T14:48:26.465Z,14.55
2023-03-25T14:51:09.511Z,12.35
2023-03-25T14:53:38.469Z,17.98
2023-03-25T14:56:07.975Z,13.98
2023-03-25T14:58:39.305Z,13.45
2023-03-25T15:01:11.342Z,8.85
2023-03-25T15:03:42.595Z,8.43
2023-03-25T15:06:14.091Z,7.90
2023-03-25T15:08:43.564Z,9.50
2023-03-25T15:11:14.591Z,12.20
2023-03-25T15:13:46.538Z,7.25
2023-03-25T15:16:34.663Z,14.27
2023-03-25T15:19:07.736Z,11.70
2023-03-25T15:22:20.259Z,9.85
2023-03-25T15:24:53.773Z,4.60
2023-03-25T15:27:35.126Z,9.57
2023-03-25T15:30:09.887Z,10.77
2023-03-25T15:32:47.107Z,11.52
2023-03-25T15:35:36.816Z,12.75
2023-03-25T15:38:40.496Z,10.00
2023-03-25T15:41:24.756Z,18.15
2023-03-25T15:44:20.932Z,13.30
2023-03-25T15:47:08.540Z,6.50
2023-03-25T15:49:51.447Z,17.85
2023-03-25T15:52:28.754Z,12.38
2023-03-25T15:54:57.287Z,8.77
2023-03-25T15:57:27.507Z,9.35
2023-03-25T16:00:01.941Z,13.60
2023-03-25T16:02:34.975Z,7.25
2023-03-25T16:05:03.511Z,10.40
2023-03-25T16:07:31.823Z,10.25
2023-03-25T16:10:06.805Z,9.02
2023-03-25T16:12:35.147Z,9.27
2023-03-25T16:15:05.861Z,13.68
2023-03-25T16:17:35.819Z,10.45
2023-03-25T16:20:07.234Z,10.18
2023-03-25T16:22:37.404Z,8.65
2023-03-25T16:25:08.088Z,15.45
2023-03-25T16:27:41.759Z,16.55
2023-03-25T16:30:23.077Z,11.05
2023-03-25T16:32:52.865Z,9.68
2023-03-25T16:35:22.633Z,13.57
2023-03-25T16:37:52.149Z,10.05
2023-03-25T16:40:22.940Z,9.77
2023-03-25T16:42:51.271Z,9.18
2023-03-25T16:45:19.756Z,11.57
2023-03-25T16:47:50.911Z,7.15
2023-03-25T16:50:20.810Z,12.35
2023-03-25T16:52:49.108Z,9.68
2023-03-25T16:55:43.921Z,9.45
2023-03-25T16:58:16.556Z,14.05
2023-03-25T17:00:44.889Z,11.50
2023-03-25T17:03:15.553Z,7.10
2023-03-25T17:05:56.814Z,7.30
2023-03-25T17:08:25.185Z,14.00
2023-03-25T17:10:55.268Z,6.97
2023-03-25T17:13:25.833Z,10.43
2023-03-25T17:15:54.274Z,9.30
2023-03-25T17:18:29.125Z,11.48
2023-03-25T17:21:01.395Z,6.97
2023-03-25T17:23:35.563Z,8.18
2023-03-25T17:26:06.395Z,8.55
2023-03-25T17:28:38.043Z,8.88
2023-03-25T17:31:19.373Z,9.60
2023-03-25T17:33:50.798Z,8.38
2023-03-25T17:36:21.269Z,8.02
2023-03-25T17:38:51.618Z,6.90
2023-03-25T17:41:20.081Z,6.43
2023-03-25T17:43:49.184Z,11.15
2023-03-25T17:46:19.995Z,14.02
2023-03-25T17:48:49.809Z,10.43
2023-03-25T17:51:18.553Z,16.90
2023-03-25T17:53:48.303Z,11.57
2023-03-25T17:56:18.228Z,23.48
2023-03-25T17:58:46.638Z,10.43
2023-03-25T18:01:15.251Z,12.05
2023-03-25T18:03:43.863Z,13.73
2023-03-25T18:06:13.194Z,14.00
2023-03-25T18:08:42.009Z,9.63
2023-03-25T18:11:11.836Z,12.73
2023-03-25T18:13:45.697Z,11.15
2023-03-25T18:16:14.184Z,12.43
2023-03-25T18:18:42.584Z,16.35
2023-03-25T18:21:11.321Z,16.52
2023-03-25T18:23:39.638Z,14.35
2023-03-25T18:26:12.514Z,17.65
2023-03-25T18:28:42.820Z,9.90
2023-03-25T18:31:13.675Z,10.05
2023-03-25T18:33:42.042Z,15.35
2023-03-25T18:36:11.060Z,13.57
2023-03-25T18:38:39.483Z,11.80
2023-03-25T18:41:08.194Z,10.20
2023-03-25T18:43:37.922Z,15.02
2023-03-25T18:46:06.414Z,17.27
2023-03-25T18:48:34.834Z,12.60
2023-03-25T18:51:03.565Z,11.52
2023-03-25T18:53:31.979Z,6.72
2023-03-25T18:56:01.303Z,13.07
2023-03-25T18:58:31.249Z,10.48
2023-03-25T19:01:01.313Z,11.85
2023-03-25T19:03:31.469Z,10.25
2023-03-25T19:06:00.679Z,10.18
2023-03-25T19:08:29.241Z,4.68
2023-03-25T19:11:08.121Z,10.30
2023-03-25T19:16:14.848Z,7.93
2023-03-25T19:18:43.291Z,11.43
2023-03-25T19:21:14.662Z,9.30
2023-03-25T19:23:43.075Z,12.77
2023-03-25T19:26:12.104Z,11.00
2023-03-25T19:28:40.970Z,5.50
2023-03-25T19:31:09.306Z,7.15
2023-03-25T19:33:42.273Z,8.93
2023-03-25T19:36:14.760Z,10.10
2023-03-25T19:38:43.607Z,6.50
2023-03-25T19:41:12.922Z,6.45
2023-03-25T19:43:41.708Z,6.97
2023-03-25T19:46:10.101Z,5.80
2023-03-25T19:48:39.900Z,6.90
2023-03-25T19:51:08.333Z,6.72
2023-03-25T19:53:36.666Z,4.10
2023-03-25T19:56:05.540Z,5.63
2023-03-25T19:58:36.771Z,5.80
2023-03-25T20:01:05.389Z,6.32
2023-03-25T20:03:35.470Z,5.93
2023-03-25T20:06:06.468Z,7.20
2023-03-25T20:08:34.858Z,8.75
2023-03-25T20:11:09.428Z,5.05
2023-03-25T20:13:37.808Z,5.15
2023-03-25T20:16:07.214Z,8.00
2023-03-25T20:18:35.596Z,5.88
2023-03-25T20:21:07.532Z,10.18
2023-03-25T20:23:36.059Z,6.50
2023-03-25T20:26:04.651Z,4.28
2023-03-25T20:28:33.011Z,6.20
2023-03-25T20:31:01.489Z,6.80
2023-03-25T20:33:29.948Z,5.50
2023-03-25T20:35:58.384Z,5.88
2023-03-25T20:38:28.140Z,5.43
2023-03-25T20:40:56.441Z,6.05
2023-03-25T20:43:25.033Z,4.72
2023-03-25T20:45:55.495Z,5.13
2023-03-25T20:48:26.658Z,5.07
2023-03-25T20:51:00.348Z,6.38
2023-03-25T20:53:30.445Z,2.38
2023-03-25T20:55:59.438Z,6.28
2023-03-25T20:58:28.437Z,3.45
2023-03-25T21:00:58.923Z,5.53
2023-03-25T21:03:27.639Z,3.58
2023-03-25T21:05:56.932Z,4.85
2023-03-25T21:08:25.971Z,1.95
2023-03-25T21:10:55.958Z,5.82
2023-03-25T21:13:26.366Z,3.47
2023-03-25T21:15:55.490Z,4.85
2023-03-25T21:18:24.776Z,5.18
2023-03-25T21:20:53.562Z,5.47
2023-03-25T21:23:27.830Z,6.45
2023-03-25T21:26:00.326Z,3.63
2023-03-25T21:28:29.159Z,6.30
2023-03-25T21:31:03.256Z,5.95
2023-03-25T21:33:34.099Z,4.18
2023-03-25T21:36:02.757Z,1.92
2023-03-25T21:38:31.324Z,3.97
2023-03-25T21:41:02.571Z,4.97
2023-03-25T21:43:31.029Z,2.42
2023-03-25T21:46:05.373Z,6.13
2023-03-25T21:48:38.075Z,9.77
2023-03-25T21:51:09.933Z,3.53
2023-03-25T21:53:43.881Z,2.95
2023-03-25T21:56:14.646Z,5.20
2023-03-25T21:58:43.059Z,2.67
2023-03-25T22:01:12.953Z,3.25
2023-03-25T22:03:45.210Z,3.17
2023-03-25T22:06:14.716Z,5.00
2023-03-25T22:08:43.029Z,5.68
2023-03-25T22:11:13.687Z,4.40
2023-03-25T22:13:42.092Z,1.90
2023-03-25T22:16:11.262Z,3.90
2023-03-25T22:18:39.764Z,3.50
2023-03-25T22:21:09.535Z,4.88
2023-03-25T22:23:37.912Z,3.65
2023-03-25T22:26:07.485Z,4.85
2023-03-25T22:28:37.392Z,5.68
2023-03-25T22:31:15.570Z,5.82
2023-03-25T22:33:44.015Z,2.47
2023-03-25T22:36:13.632Z,4.32
2023-03-25T22:38:42.394Z,3.90
2023-03-25T22:41:10.782Z,4.78
2023-03-25T22:43:40.527Z,6.38
2023-03-25T22:46:09.190Z,4.63
2023-03-25T22:48:39.053Z,2.03
2023-03-25T22:51:08.154Z,2.85
2023-03-25T22:53:36.572Z,5.20
2023-03-25T22:56:05.388Z,2.53
2023-03-25T22:58:33.784Z,3.58
2023-03-25T23:01:04.368Z,2.92
2023-03-25T23:03:32.864Z,2.13
2023-03-25T23:06:02.397Z,4.07
2023-03-25T23:08:32.042Z,6.50
2023-03-25T23:11:00.849Z,4.05
2023-03-25T23:13:30.086Z,2.55
2023-03-25T23:15:59.695Z,4.40
2023-03-25T23:18:29.427Z,4.30
2023-03-25T23:21:00.404Z,3.35
2023-03-25T23:23:28.813Z,2.72
2023-03-25T23:26:04.620Z,4.43
2023-03-25T23:28:36.133Z,3.60
2023-03-25T23:31:04.857Z,3.13
2023-03-25T23:33:34.495Z,2.45
2023-03-25T23:36:05.416Z,4.70
2023-03-25T23:38:34.088Z,2.60
2023-03-25T23:41:02.872Z,3.70
2023-03-25T23:43:31.184Z,3.85
2023-03-25T23:46:01.320Z,5.03
2023-03-25T23:48:29.708Z,3.72
2023-03-25T23:50:59.516Z,3.00
2023-03-25T23:53:28.129Z,2.97
2023-03-25T23:55:56.731Z,2.88
2023-03-25T23:58:25.839Z,3.20
